sensor_id;sensor_type;location;lat;lon;timestamp;temperature;humidity
30379;DHT22;17168;49.164;9.060;2024-01-30T00:01:26;5.60;75.70
30379;DHT22;17168;49.164;9.060;2024-01-30T00:03:58;5.40;75.50
30379;DHT22;17168;49.164;9.060;2024-01-30T00:06:31;5.20;75.40
30379;DHT22;17168;49.164;9.060;2024-01-30T00:09:03;5.00;75.40
30379;DHT22;17168;49.164;9.060;2024-01-30T00:11:39;4.80;75.40
30379;DHT22;17168;49.164;9.060;2024-01-30T00:14:12;4.60;75.50
30379;DHT22;17168;49.164;9.060;2024-01-30T00:16:44;4.40;75.50
30379;DHT22;17168;49.164;9.060;2024-01-30T00:19:17;4.30;75.70
30379;DHT22;17168;49.164;9.060;2024-01-30T00:21:49;4.10;75.70
30379;DHT22;17168;49.164;9.060;2024-01-30T00:24:22;4.00;75.90
30379;DHT22;17168;49.164;9.060;2024-01-30T00:26:56;3.90;76.10
30379;DHT22;17168;49.164;9.060;2024-01-30T00:29:29;3.80;76.20
30379;DHT22;17168;49.164;9.060;2024-01-30T00:32:06;3.60;76.80
30379;DHT22;17168;49.164;9.060;2024-01-30T00:34:38;3.50;76.60
30379;DHT22;17168;49.164;9.060;2024-01-30T00:37:10;3.40;76.70
30379;DHT22;17168;49.164;9.060;2024-01-30T00:39:42;3.40;76.80
30379;DHT22;17168;49.164;9.060;2024-01-30T00:42:17;3.30;77.00
30379;DHT22;17168;49.164;9.060;2024-01-30T00:44:49;3.20;77.30
30379;DHT22;17168;49.164;9.060;2024-01-30T00:47:22;3.10;77.40
30379;DHT22;17168;49.164;9.060;2024-01-30T00:49:54;3.10;77.80
30379;DHT22;17168;49.164;9.060;2024-01-30T00:52:26;3.00;78.00
30379;DHT22;17168;49.164;9.060;2024-01-30T00:54:58;2.90;78.10
30379;DHT22;17168;49.164;9.060;2024-01-30T00:57:33;2.90;78.30
30379;DHT22;17168;49.164;9.060;2024-01-30T01:00:07;2.80;78.50
30379;DHT22;17168;49.164;9.060;2024-01-30T01:02:40;2.80;78.60
30379;DHT22;17168;49.164;9.060;2024-01-30T01:05:13;2.80;78.70
30379;DHT22;17168;49.164;9.060;2024-01-30T01:07:45;2.70;78.80
30379;DHT22;17168;49.164;9.060;2024-01-30T01:10:19;2.70;79.00
30379;DHT22;17168;49.164;9.060;2024-01-30T01:12:54;2.60;79.10
30379;DHT22;17168;49.164;9.060;2024-01-30T01:15:26;2.60;79.40
30379;DHT22;17168;49.164;9.060;2024-01-30T01:18:01;2.50;79.60
30379;DHT22;17168;49.164;9.060;2024-01-30T01:20:34;2.50;79.80
30379;DHT22;17168;49.164;9.060;2024-01-30T01:23:06;2.40;80.10
30379;DHT22;17168;49.164;9.060;2024-01-30T01:25:38;2.40;80.40
30379;DHT22;17168;49.164;9.060;2024-01-30T01:28:13;2.40;80.30
30379;DHT22;17168;49.164;9.060;2024-01-30T01:30:45;2.30;80.60
30379;DHT22;17168;49.164;9.060;2024-01-30T01:33:18;2.30;80.70
30379;DHT22;17168;49.164;9.060;2024-01-30T01:35:50;2.30;80.90
30379;DHT22;17168;49.164;9.060;2024-01-30T01:38:22;2.30;80.90
30379;DHT22;17168;49.164;9.060;2024-01-30T01:40:55;2.30;81.10
30379;DHT22;17168;49.164;9.060;2024-01-30T01:43:29;2.20;81.10
30379;DHT22;17168;49.164;9.060;2024-01-30T01:46:02;2.20;81.30
30379;DHT22;17168;49.164;9.060;2024-01-30T01:48:34;2.20;81.40
30379;DHT22;17168;49.164;9.060;2024-01-30T01:51:07;2.10;81.20
30379;DHT22;17168;49.164;9.060;2024-01-30T01:53:41;2.20;81.70
30379;DHT22;17168;49.164;9.060;2024-01-30T01:56:13;2.10;81.70
30379;DHT22;17168;49.164;9.060;2024-01-30T01:58:50;2.10;81.80
30379;DHT22;17168;49.164;9.060;2024-01-30T02:01:23;2.10;82.00
30379;DHT22;17168;49.164;9.060;2024-01-30T02:03:57;2.10;82.00
30379;DHT22;17168;49.164;9.060;2024-01-30T02:06:30;2.10;82.00
30379;DHT22;17168;49.164;9.060;2024-01-30T02:09:02;2.10;82.10
30379;DHT22;17168;49.164;9.060;2024-01-30T02:11:36;2.10;82.20
30379;DHT22;17168;49.164;9.060;2024-01-30T02:14:11;2.10;82.30
30379;DHT22;17168;49.164;9.060;2024-01-30T02:16:43;2.00;82.30
30379;DHT22;17168;49.164;9.060;2024-01-30T02:19:15;2.00;82.40
30379;DHT22;17168;49.164;9.060;2024-01-30T02:21:51;2.00;82.10
30379;DHT22;17168;49.164;9.060;2024-01-30T02:24:24;2.00;82.40
30379;DHT22;17168;49.164;9.060;2024-01-30T02:26:56;1.90;82.60
30379;DHT22;17168;49.164;9.060;2024-01-30T02:29:28;1.90;82.80
30379;DHT22;17168;49.164;9.060;2024-01-30T02:32:00;1.80;82.70
30379;DHT22;17168;49.164;9.060;2024-01-30T02:34:32;1.80;83.00
30379;DHT22;17168;49.164;9.060;2024-01-30T02:37:07;1.80;82.90
30379;DHT22;17168;49.164;9.060;2024-01-30T02:39:39;1.80;83.20
30379;DHT22;17168;49.164;9.060;2024-01-30T02:42:12;1.70;83.80
30379;DHT22;17168;49.164;9.060;2024-01-30T02:44:44;1.70;83.60
30379;DHT22;17168;49.164;9.060;2024-01-30T02:47:16;1.70;83.60
30379;DHT22;17168;49.164;9.060;2024-01-30T02:49:48;1.70;84.00
30379;DHT22;17168;49.164;9.060;2024-01-30T02:52:26;1.70;84.00
30379;DHT22;17168;49.164;9.060;2024-01-30T02:54:58;1.60;84.40
30379;DHT22;17168;49.164;9.060;2024-01-30T02:57:31;1.60;84.70
30379;DHT22;17168;49.164;9.060;2024-01-30T03:00:04;1.60;85.00
30379;DHT22;17168;49.164;9.060;2024-01-30T03:02:38;1.60;85.30
30379;DHT22;17168;49.164;9.060;2024-01-30T03:05:10;1.60;85.50
30379;DHT22;17168;49.164;9.060;2024-01-30T03:07:45;1.60;85.80
30379;DHT22;17168;49.164;9.060;2024-01-30T03:10:17;1.60;86.10
30379;DHT22;17168;49.164;9.060;2024-01-30T03:12:50;1.60;86.30
30379;DHT22;17168;49.164;9.060;2024-01-30T03:15:22;1.60;86.50
30379;DHT22;17168;49.164;9.060;2024-01-30T03:17:54;1.60;86.80
30379;DHT22;17168;49.164;9.060;2024-01-30T03:20:27;1.60;87.00
30379;DHT22;17168;49.164;9.060;2024-01-30T03:23:02;1.60;87.10
30379;DHT22;17168;49.164;9.060;2024-01-30T03:25:35;1.60;87.30
30379;DHT22;17168;49.164;9.060;2024-01-30T03:28:07;1.60;87.30
30379;DHT22;17168;49.164;9.060;2024-01-30T03:30:39;1.60;86.90
30379;DHT22;17168;49.164;9.060;2024-01-30T03:33:11;1.60;87.20
30379;DHT22;17168;49.164;9.060;2024-01-30T03:35:43;1.60;87.40
30379;DHT22;17168;49.164;9.060;2024-01-30T03:38:18;1.60;87.70
30379;DHT22;17168;49.164;9.060;2024-01-30T03:40:50;1.60;87.30
30379;DHT22;17168;49.164;9.060;2024-01-30T03:43:22;1.60;87.60
30379;DHT22;17168;49.164;9.060;2024-01-30T03:45:54;1.60;87.40
30379;DHT22;17168;49.164;9.060;2024-01-30T03:48:27;1.50;87.70
30379;DHT22;17168;49.164;9.060;2024-01-30T03:50:59;1.50;88.10
30379;DHT22;17168;49.164;9.060;2024-01-30T03:53:33;1.50;88.40
30379;DHT22;17168;49.164;9.060;2024-01-30T03:56:06;1.50;88.20
30379;DHT22;17168;49.164;9.060;2024-01-30T03:58:38;1.50;88.50
30379;DHT22;17168;49.164;9.060;2024-01-30T04:01:13;1.50;88.80
30379;DHT22;17168;49.164;9.060;2024-01-30T04:03:46;1.40;89.00
30379;DHT22;17168;49.164;9.060;2024-01-30T04:06:18;1.40;89.20
30379;DHT22;17168;49.164;9.060;2024-01-30T04:08:53;1.50;89.50
30379;DHT22;17168;49.164;9.060;2024-01-30T04:11:25;1.50;89.60
30379;DHT22;17168;49.164;9.060;2024-01-30T04:13:57;1.50;89.60
30379;DHT22;17168;49.164;9.060;2024-01-30T04:16:29;1.50;89.10
30379;DHT22;17168;49.164;9.060;2024-01-30T04:19:01;1.40;89.40
30379;DHT22;17168;49.164;9.060;2024-01-30T04:21:34;1.40;89.30
30379;DHT22;17168;49.164;9.060;2024-01-30T04:24:08;1.40;89.90
30379;DHT22;17168;49.164;9.060;2024-01-30T04:26:40;1.40;90.00
30379;DHT22;17168;49.164;9.060;2024-01-30T04:29:12;1.30;90.10
30379;DHT22;17168;49.164;9.060;2024-01-30T04:31:44;1.30;90.10
30379;DHT22;17168;49.164;9.060;2024-01-30T04:34:16;1.30;90.30
30379;DHT22;17168;49.164;9.060;2024-01-30T04:36:48;1.30;90.30
30379;DHT22;17168;49.164;9.060;2024-01-30T04:39:23;1.30;90.50
30379;DHT22;17168;49.164;9.060;2024-01-30T04:41:55;1.30;90.70
30379;DHT22;17168;49.164;9.060;2024-01-30T04:44:27;1.20;90.90
30379;DHT22;17168;49.164;9.060;2024-01-30T04:47:00;1.30;90.80
30379;DHT22;17168;49.164;9.060;2024-01-30T04:49:33;1.20;91.00
30379;DHT22;17168;49.164;9.060;2024-01-30T04:52:06;1.20;91.20
30379;DHT22;17168;49.164;9.060;2024-01-30T04:54:40;1.30;91.30
30379;DHT22;17168;49.164;9.060;2024-01-30T04:57:13;1.30;91.50
30379;DHT22;17168;49.164;9.060;2024-01-30T04:59:45;1.20;91.60
30379;DHT22;17168;49.164;9.060;2024-01-30T05:02:17;1.20;91.70
30379;DHT22;17168;49.164;9.060;2024-01-30T05:04:49;1.30;91.80
30379;DHT22;17168;49.164;9.060;2024-01-30T05:07:21;1.30;91.60
30379;DHT22;17168;49.164;9.060;2024-01-30T05:09:56;1.30;91.70
30379;DHT22;17168;49.164;9.060;2024-01-30T05:12:30;1.30;91.80
30379;DHT22;17168;49.164;9.060;2024-01-30T05:15:03;1.30;91.90
30379;DHT22;17168;49.164;9.060;2024-01-30T05:17:35;1.30;91.70
30379;DHT22;17168;49.164;9.060;2024-01-30T05:20:08;1.30;91.90
30379;DHT22;17168;49.164;9.060;2024-01-30T05:22:41;1.30;91.80
30379;DHT22;17168;49.164;9.060;2024-01-30T05:25:20;1.30;92.00
30379;DHT22;17168;49.164;9.060;2024-01-30T05:27:52;1.30;92.20
30379;DHT22;17168;49.164;9.060;2024-01-30T05:30:24;1.30;92.20
30379;DHT22;17168;49.164;9.060;2024-01-30T05:32:56;1.30;92.50
30379;DHT22;17168;49.164;9.060;2024-01-30T05:35:29;1.30;92.20
30379;DHT22;17168;49.164;9.060;2024-01-30T05:38:01;1.30;92.40
30379;DHT22;17168;49.164;9.060;2024-01-30T05:40:35;1.30;92.30
30379;DHT22;17168;49.164;9.060;2024-01-30T05:43:11;1.20;92.50
30379;DHT22;17168;49.164;9.060;2024-01-30T05:45:43;1.30;92.70
30379;DHT22;17168;49.164;9.060;2024-01-30T05:48:15;1.20;92.70
30379;DHT22;17168;49.164;9.060;2024-01-30T05:50:47;1.30;92.60
30379;DHT22;17168;49.164;9.060;2024-01-30T05:53:19;1.20;92.80
30379;DHT22;17168;49.164;9.060;2024-01-30T05:55:59;1.20;93.00
30379;DHT22;17168;49.164;9.060;2024-01-30T05:58:31;1.20;93.30
30379;DHT22;17168;49.164;9.060;2024-01-30T06:01:08;1.30;93.80
30379;DHT22;17168;49.164;9.060;2024-01-30T06:03:41;1.40;94.80
30379;DHT22;17168;49.164;9.060;2024-01-30T06:06:20;1.70;95.70
30379;DHT22;17168;49.164;9.060;2024-01-30T06:08:53;2.10;96.60
30379;DHT22;17168;49.164;9.060;2024-01-30T06:11:34;2.40;97.10
30379;DHT22;17168;49.164;9.060;2024-01-30T06:14:06;2.60;97.50
30379;DHT22;17168;49.164;9.060;2024-01-30T06:16:47;2.90;97.70
30379;DHT22;17168;49.164;9.060;2024-01-30T06:19:25;3.10;97.90
30379;DHT22;17168;49.164;9.060;2024-01-30T06:21:58;3.30;98.00
30379;DHT22;17168;49.164;9.060;2024-01-30T06:24:30;3.50;98.10
30379;DHT22;17168;49.164;9.060;2024-01-30T06:27:16;3.60;98.00
30379;DHT22;17168;49.164;9.060;2024-01-30T06:29:49;3.90;97.70
30379;DHT22;17168;49.164;9.060;2024-01-30T06:32:21;4.00;97.30
30379;DHT22;17168;49.164;9.060;2024-01-30T06:34:53;4.10;97.00
30379;DHT22;17168;49.164;9.060;2024-01-30T06:37:35;4.20;96.70
30379;DHT22;17168;49.164;9.060;2024-01-30T06:40:08;4.30;96.40
30379;DHT22;17168;49.164;9.060;2024-01-30T06:42:43;4.40;96.00
30379;DHT22;17168;49.164;9.060;2024-01-30T06:45:15;4.50;95.40
30379;DHT22;17168;49.164;9.060;2024-01-30T06:47:47;4.50;95.00
30379;DHT22;17168;49.164;9.060;2024-01-30T06:50:19;4.60;94.70
30379;DHT22;17168;49.164;9.060;2024-01-30T06:52:52;4.70;94.50
30379;DHT22;17168;49.164;9.060;2024-01-30T06:55:24;4.70;94.20
30379;DHT22;17168;49.164;9.060;2024-01-30T06:57:59;4.80;94.00
30379;DHT22;17168;49.164;9.060;2024-01-30T07:00:31;4.90;93.70
30379;DHT22;17168;49.164;9.060;2024-01-30T07:03:04;4.90;93.50
30379;DHT22;17168;49.164;9.060;2024-01-30T07:05:39;5.00;93.20
30379;DHT22;17168;49.164;9.060;2024-01-30T07:08:12;5.00;93.00
30379;DHT22;17168;49.164;9.060;2024-01-30T07:10:44;5.10;92.80
30379;DHT22;17168;49.164;9.060;2024-01-30T07:13:19;5.10;92.70
30379;DHT22;17168;49.164;9.060;2024-01-30T07:15:51;5.10;92.50
30379;DHT22;17168;49.164;9.060;2024-01-30T07:18:23;5.10;92.20
30379;DHT22;17168;49.164;9.060;2024-01-30T07:20:56;5.10;91.80
30379;DHT22;17168;49.164;9.060;2024-01-30T07:23:28;5.10;91.50
30379;DHT22;17168;49.164;9.060;2024-01-30T07:26:04;5.20;91.50
30379;DHT22;17168;49.164;9.060;2024-01-30T07:28:39;5.20;91.40
30379;DHT22;17168;49.164;9.060;2024-01-30T07:31:14;5.20;91.40
30379;DHT22;17168;49.164;9.060;2024-01-30T07:33:46;5.20;91.40
30379;DHT22;17168;49.164;9.060;2024-01-30T07:36:19;5.20;91.30
30379;DHT22;17168;49.164;9.060;2024-01-30T07:38:55;5.20;91.30
30379;DHT22;17168;49.164;9.060;2024-01-30T07:41:27;5.20;91.20
30379;DHT22;17168;49.164;9.060;2024-01-30T07:44:03;5.30;91.10
30379;DHT22;17168;49.164;9.060;2024-01-30T07:46:40;5.30;91.10
30379;DHT22;17168;49.164;9.060;2024-01-30T07:49:12;5.40;91.10
30379;DHT22;17168;49.164;9.060;2024-01-30T07:51:46;5.40;91.00
30379;DHT22;17168;49.164;9.060;2024-01-30T07:54:23;5.50;90.90
30379;DHT22;17168;49.164;9.060;2024-01-30T07:56:56;5.50;90.80
30379;DHT22;17168;49.164;9.060;2024-01-30T07:59:30;5.50;90.60
30379;DHT22;17168;49.164;9.060;2024-01-30T08:02:03;5.60;90.50
30379;DHT22;17168;49.164;9.060;2024-01-30T08:04:37;5.60;90.50
30379;DHT22;17168;49.164;9.060;2024-01-30T08:07:10;5.60;90.40
30379;DHT22;17168;49.164;9.060;2024-01-30T08:09:42;5.60;90.30
30379;DHT22;17168;49.164;9.060;2024-01-30T08:12:14;5.70;90.30
30379;DHT22;17168;49.164;9.060;2024-01-30T08:14:55;5.70;90.30
30379;DHT22;17168;49.164;9.060;2024-01-30T08:17:27;5.70;90.20
30379;DHT22;17168;49.164;9.060;2024-01-30T08:19:59;5.70;90.10
30379;DHT22;17168;49.164;9.060;2024-01-30T08:22:32;5.80;90.00
30379;DHT22;17168;49.164;9.060;2024-01-30T08:25:05;5.80;90.00
30379;DHT22;17168;49.164;9.060;2024-01-30T08:27:38;5.80;89.90
30379;DHT22;17168;49.164;9.060;2024-01-30T08:30:14;5.80;90.10
30379;DHT22;17168;49.164;9.060;2024-01-30T08:32:48;5.80;90.00
30379;DHT22;17168;49.164;9.060;2024-01-30T08:35:20;5.90;90.00
30379;DHT22;17168;49.164;9.060;2024-01-30T08:37:52;5.90;90.00
30379;DHT22;17168;49.164;9.060;2024-01-30T08:40:30;6.00;90.10
30379;DHT22;17168;49.164;9.060;2024-01-30T08:43:03;6.00;90.10
30379;DHT22;17168;49.164;9.060;2024-01-30T08:45:44;6.00;90.00
30379;DHT22;17168;49.164;9.060;2024-01-30T08:48:16;6.10;90.10
30379;DHT22;17168;49.164;9.060;2024-01-30T08:50:49;6.20;90.10
30379;DHT22;17168;49.164;9.060;2024-01-30T08:53:31;6.30;90.20
30379;DHT22;17168;49.164;9.060;2024-01-30T08:56:09;6.40;90.20
30379;DHT22;17168;49.164;9.060;2024-01-30T08:58:41;6.50;90.10
30379;DHT22;17168;49.164;9.060;2024-01-30T09:01:16;6.50;90.00
30379;DHT22;17168;49.164;9.060;2024-01-30T09:03:51;6.50;89.10
30379;DHT22;17168;49.164;9.060;2024-01-30T09:06:23;6.30;88.50
30379;DHT22;17168;49.164;9.060;2024-01-30T09:08:58;6.20;87.90
30379;DHT22;17168;49.164;9.060;2024-01-30T09:11:35;6.10;87.50
30379;DHT22;17168;49.164;9.060;2024-01-30T09:14:08;5.90;87.40
30379;DHT22;17168;49.164;9.060;2024-01-30T09:16:43;5.80;87.40
30379;DHT22;17168;49.164;9.060;2024-01-30T09:19:18;5.60;87.50
30379;DHT22;17168;49.164;9.060;2024-01-30T09:21:50;5.50;87.70
30379;DHT22;17168;49.164;9.060;2024-01-30T09:24:22;5.40;88.00
30379;DHT22;17168;49.164;9.060;2024-01-30T09:26:54;5.30;88.20
30379;DHT22;17168;49.164;9.060;2024-01-30T09:29:27;5.20;88.50
30379;DHT22;17168;49.164;9.060;2024-01-30T09:32:02;5.10;88.80
30379;DHT22;17168;49.164;9.060;2024-01-30T09:34:35;5.10;89.10
30379;DHT22;17168;49.164;9.060;2024-01-30T09:37:08;5.10;89.40
30379;DHT22;17168;49.164;9.060;2024-01-30T09:39:46;5.00;89.80
30379;DHT22;17168;49.164;9.060;2024-01-30T09:42:26;5.00;90.00
30379;DHT22;17168;49.164;9.060;2024-01-30T09:44:58;5.00;90.20
30379;DHT22;17168;49.164;9.060;2024-01-30T09:47:37;5.00;90.40
30379;DHT22;17168;49.164;9.060;2024-01-30T09:50:12;5.10;90.60
30379;DHT22;17168;49.164;9.060;2024-01-30T09:52:51;5.10;90.70
30379;DHT22;17168;49.164;9.060;2024-01-30T09:55:24;5.10;90.80
30379;DHT22;17168;49.164;9.060;2024-01-30T09:57:57;5.10;91.00
30379;DHT22;17168;49.164;9.060;2024-01-30T10:00:35;5.10;91.10
30379;DHT22;17168;49.164;9.060;2024-01-30T10:03:15;5.10;91.40
30379;DHT22;17168;49.164;9.060;2024-01-30T10:05:51;5.20;91.60
30379;DHT22;17168;49.164;9.060;2024-01-30T10:08:26;5.20;91.80
30379;DHT22;17168;49.164;9.060;2024-01-30T10:10:58;5.20;91.90
30379;DHT22;17168;49.164;9.060;2024-01-30T10:13:31;5.30;92.20
30379;DHT22;17168;49.164;9.060;2024-01-30T10:16:04;5.30;92.40
30379;DHT22;17168;49.164;9.060;2024-01-30T10:18:41;5.40;92.70
30379;DHT22;17168;49.164;9.060;2024-01-30T10:21:15;5.40;93.00
30379;DHT22;17168;49.164;9.060;2024-01-30T10:23:48;5.50;93.20
30379;DHT22;17168;49.164;9.060;2024-01-30T10:26:21;5.50;93.50
30379;DHT22;17168;49.164;9.060;2024-01-30T10:28:53;5.60;93.60
30379;DHT22;17168;49.164;9.060;2024-01-30T10:31:27;5.60;93.80
30379;DHT22;17168;49.164;9.060;2024-01-30T10:34:02;5.70;94.20
30379;DHT22;17168;49.164;9.060;2024-01-30T10:36:50;5.70;94.40
30379;DHT22;17168;49.164;9.060;2024-01-30T10:39:29;5.80;94.70
30379;DHT22;17168;49.164;9.060;2024-01-30T10:42:05;5.90;94.90
30379;DHT22;17168;49.164;9.060;2024-01-30T10:44:54;6.00;95.10
30379;DHT22;17168;49.164;9.060;2024-01-30T10:47:29;6.00;95.30
30379;DHT22;17168;49.164;9.060;2024-01-30T10:50:05;6.10;95.40
30379;DHT22;17168;49.164;9.060;2024-01-30T10:52:39;6.20;95.60
30379;DHT22;17168;49.164;9.060;2024-01-30T10:55:11;6.20;95.70
30379;DHT22;17168;49.164;9.060;2024-01-30T10:57:47;6.30;95.80
30379;DHT22;17168;49.164;9.060;2024-01-30T11:00:19;6.40;95.80
30379;DHT22;17168;49.164;9.060;2024-01-30T11:03:01;6.40;95.90
30379;DHT22;17168;49.164;9.060;2024-01-30T11:05:40;6.50;96.00
30379;DHT22;17168;49.164;9.060;2024-01-30T11:08:13;6.60;96.00
30379;DHT22;17168;49.164;9.060;2024-01-30T11:10:46;6.60;95.90
30379;DHT22;17168;49.164;9.060;2024-01-30T11:13:22;6.70;96.00
30379;DHT22;17168;49.164;9.060;2024-01-30T11:15:54;6.70;96.10
30379;DHT22;17168;49.164;9.060;2024-01-30T11:18:29;6.80;96.10
30379;DHT22;17168;49.164;9.060;2024-01-30T11:21:19;6.90;96.20
30379;DHT22;17168;49.164;9.060;2024-01-30T11:23:51;6.90;96.30
30379;DHT22;17168;49.164;9.060;2024-01-30T11:26:27;7.00;96.40
30379;DHT22;17168;49.164;9.060;2024-01-30T11:29:03;7.00;96.30
30379;DHT22;17168;49.164;9.060;2024-01-30T11:31:51;7.10;96.40
30379;DHT22;17168;49.164;9.060;2024-01-30T11:34:24;7.20;96.50
30379;DHT22;17168;49.164;9.060;2024-01-30T11:37:03;7.20;96.90
30379;DHT22;17168;49.164;9.060;2024-01-30T11:39:36;7.30;96.90
30379;DHT22;17168;49.164;9.060;2024-01-30T11:42:15;7.40;96.90
30379;DHT22;17168;49.164;9.060;2024-01-30T11:44:47;7.40;97.00
30379;DHT22;17168;49.164;9.060;2024-01-30T11:47:22;7.50;97.20
30379;DHT22;17168;49.164;9.060;2024-01-30T11:49:57;7.60;97.40
30379;DHT22;17168;49.164;9.060;2024-01-30T11:52:34;7.70;97.60
30379;DHT22;17168;49.164;9.060;2024-01-30T11:55:07;7.80;97.60
30379;DHT22;17168;49.164;9.060;2024-01-30T11:57:40;7.90;97.80
30379;DHT22;17168;49.164;9.060;2024-01-30T12:00:16;8.00;98.00
30379;DHT22;17168;49.164;9.060;2024-01-30T12:02:54;8.10;98.20
30379;DHT22;17168;49.164;9.060;2024-01-30T12:05:30;8.20;98.40
30379;DHT22;17168;49.164;9.060;2024-01-30T12:08:05;8.30;98.40
30379;DHT22;17168;49.164;9.060;2024-01-30T12:10:39;8.40;98.30
30379;DHT22;17168;49.164;9.060;2024-01-30T12:13:11;8.50;98.30
30379;DHT22;17168;49.164;9.060;2024-01-30T12:15:43;8.60;98.30
30379;DHT22;17168;49.164;9.060;2024-01-30T12:18:18;8.70;98.30
30379;DHT22;17168;49.164;9.060;2024-01-30T12:20:57;8.90;98.10
30379;DHT22;17168;49.164;9.060;2024-01-30T12:23:33;9.00;97.90
30379;DHT22;17168;49.164;9.060;2024-01-30T12:26:12;9.10;97.70
30379;DHT22;17168;49.164;9.060;2024-01-30T12:28:57;9.10;97.20
30379;DHT22;17168;49.164;9.060;2024-01-30T12:31:36;9.20;96.50
30379;DHT22;17168;49.164;9.060;2024-01-30T12:34:08;9.30;95.90
30379;DHT22;17168;49.164;9.060;2024-01-30T12:36:57;9.40;95.80
30379;DHT22;17168;49.164;9.060;2024-01-30T12:39:32;9.40;95.60
30379;DHT22;17168;49.164;9.060;2024-01-30T12:42:07;9.50;95.10
30379;DHT22;17168;49.164;9.060;2024-01-30T12:44:40;9.50;94.60
30379;DHT22;17168;49.164;9.060;2024-01-30T12:47:12;9.50;94.40
30379;DHT22;17168;49.164;9.060;2024-01-30T12:49:45;9.50;94.40
30379;DHT22;17168;49.164;9.060;2024-01-30T12:52:17;9.50;93.90
30379;DHT22;17168;49.164;9.060;2024-01-30T12:54:52;9.50;93.40
30379;DHT22;17168;49.164;9.060;2024-01-30T12:57:28;9.50;92.40
30379;DHT22;17168;49.164;9.060;2024-01-30T13:00:00;9.40;91.70
30379;DHT22;17168;49.164;9.060;2024-01-30T13:02:35;9.40;91.90
30379;DHT22;17168;49.164;9.060;2024-01-30T13:05:10;9.40;92.30
30379;DHT22;17168;49.164;9.060;2024-01-30T13:07:42;9.40;92.60
30379;DHT22;17168;49.164;9.060;2024-01-30T13:10:17;9.50;92.80
30379;DHT22;17168;49.164;9.060;2024-01-30T13:12:53;9.50;93.40
30379;DHT22;17168;49.164;9.060;2024-01-30T13:15:25;9.70;95.10
30379;DHT22;17168;49.164;9.060;2024-01-30T13:17:57;9.90;96.20
30379;DHT22;17168;49.164;9.060;2024-01-30T13:20:35;10.10;96.00
30379;DHT22;17168;49.164;9.060;2024-01-30T13:23:08;10.20;95.40
30379;DHT22;17168;49.164;9.060;2024-01-30T13:25:42;10.30;94.90
30379;DHT22;17168;49.164;9.060;2024-01-30T13:28:17;10.30;94.40
30379;DHT22;17168;49.164;9.060;2024-01-30T13:30:50;10.30;94.30
30379;DHT22;17168;49.164;9.060;2024-01-30T13:33:22;10.40;94.30
30379;DHT22;17168;49.164;9.060;2024-01-30T13:35:54;10.40;94.00
30379;DHT22;17168;49.164;9.060;2024-01-30T13:38:45;10.40;93.90
30379;DHT22;17168;49.164;9.060;2024-01-30T13:41:20;10.50;93.80
30379;DHT22;17168;49.164;9.060;2024-01-30T13:43:56;10.60;94.30
30379;DHT22;17168;49.164;9.060;2024-01-30T13:46:28;10.60;94.50
30379;DHT22;17168;49.164;9.060;2024-01-30T13:49:01;10.70;94.30
30379;DHT22;17168;49.164;9.060;2024-01-30T13:51:37;10.70;94.00
30379;DHT22;17168;49.164;9.060;2024-01-30T13:54:10;10.70;93.80
30379;DHT22;17168;49.164;9.060;2024-01-30T13:56:44;10.70;93.60
30379;DHT22;17168;49.164;9.060;2024-01-30T13:59:17;10.70;93.50
30379;DHT22;17168;49.164;9.060;2024-01-30T14:01:55;10.70;93.30
30379;DHT22;17168;49.164;9.060;2024-01-30T14:04:27;10.70;93.10
30379;DHT22;17168;49.164;9.060;2024-01-30T14:07:00;10.70;93.20
30379;DHT22;17168;49.164;9.060;2024-01-30T14:09:36;10.60;93.00
30379;DHT22;17168;49.164;9.060;2024-01-30T14:12:12;10.60;93.10
30379;DHT22;17168;49.164;9.060;2024-01-30T14:14:45;10.60;92.90
30379;DHT22;17168;49.164;9.060;2024-01-30T14:17:17;10.60;92.40
30379;DHT22;17168;49.164;9.060;2024-01-30T14:19:50;10.50;91.70
30379;DHT22;17168;49.164;9.060;2024-01-30T14:22:22;10.50;91.10
30379;DHT22;17168;49.164;9.060;2024-01-30T14:24:54;10.40;90.70
30379;DHT22;17168;49.164;9.060;2024-01-30T14:27:35;10.40;90.40
30379;DHT22;17168;49.164;9.060;2024-01-30T14:30:15;10.30;90.30
30379;DHT22;17168;49.164;9.060;2024-01-30T14:32:47;10.30;90.20
30379;DHT22;17168;49.164;9.060;2024-01-30T14:35:22;10.20;90.30
30379;DHT22;17168;49.164;9.060;2024-01-30T14:37:54;10.20;90.50
30379;DHT22;17168;49.164;9.060;2024-01-30T14:40:26;10.20;90.60
30379;DHT22;17168;49.164;9.060;2024-01-30T14:43:01;10.10;90.60
30379;DHT22;17168;49.164;9.060;2024-01-30T14:45:40;10.10;90.60
30379;DHT22;17168;49.164;9.060;2024-01-30T14:48:13;10.10;90.60
30379;DHT22;17168;49.164;9.060;2024-01-30T14:50:45;10.00;90.60
30379;DHT22;17168;49.164;9.060;2024-01-30T14:53:20;10.00;90.80
30379;DHT22;17168;49.164;9.060;2024-01-30T14:55:55;9.90;90.80
30379;DHT22;17168;49.164;9.060;2024-01-30T14:58:30;9.90;90.90
30379;DHT22;17168;49.164;9.060;2024-01-30T15:01:03;9.90;90.90
30379;DHT22;17168;49.164;9.060;2024-01-30T15:03:38;9.80;90.90
30379;DHT22;17168;49.164;9.060;2024-01-30T15:06:12;9.80;90.90
30379;DHT22;17168;49.164;9.060;2024-01-30T15:08:44;9.70;90.80
30379;DHT22;17168;49.164;9.060;2024-01-30T15:11:16;9.70;90.80
30379;DHT22;17168;49.164;9.060;2024-01-30T15:13:51;9.60;90.80
30379;DHT22;17168;49.164;9.060;2024-01-30T15:16:24;9.60;90.90
30379;DHT22;17168;49.164;9.060;2024-01-30T15:18:56;9.60;91.00
30379;DHT22;17168;49.164;9.060;2024-01-30T15:21:28;9.50;91.10
30379;DHT22;17168;49.164;9.060;2024-01-30T15:24:05;9.50;91.30
30379;DHT22;17168;49.164;9.060;2024-01-30T15:26:37;9.50;91.50
30379;DHT22;17168;49.164;9.060;2024-01-30T15:29:12;9.50;91.60
30379;DHT22;17168;49.164;9.060;2024-01-30T15:31:47;9.50;91.60
30379;DHT22;17168;49.164;9.060;2024-01-30T15:34:20;9.40;91.50
30379;DHT22;17168;49.164;9.060;2024-01-30T15:36:52;9.40;91.50
30379;DHT22;17168;49.164;9.060;2024-01-30T15:39:30;9.30;91.50
30379;DHT22;17168;49.164;9.060;2024-01-30T15:42:03;9.30;91.60
30379;DHT22;17168;49.164;9.060;2024-01-30T15:44:38;9.20;91.60
30379;DHT22;17168;49.164;9.060;2024-01-30T15:47:13;9.20;91.70
30379;DHT22;17168;49.164;9.060;2024-01-30T15:49:45;9.10;91.80
30379;DHT22;17168;49.164;9.060;2024-01-30T15:52:18;9.00;92.00
30379;DHT22;17168;49.164;9.060;2024-01-30T15:54:50;9.00;92.10
30379;DHT22;17168;49.164;9.060;2024-01-30T15:57:23;8.90;92.30
30379;DHT22;17168;49.164;9.060;2024-01-30T16:00:01;8.90;92.40
30379;DHT22;17168;49.164;9.060;2024-01-30T16:02:33;8.90;92.50
30379;DHT22;17168;49.164;9.060;2024-01-30T16:05:06;8.80;92.60
30379;DHT22;17168;49.164;9.060;2024-01-30T16:07:40;8.80;92.80
30379;DHT22;17168;49.164;9.060;2024-01-30T16:10:12;8.80;92.90
30379;DHT22;17168;49.164;9.060;2024-01-30T16:12:48;8.70;92.90
30379;DHT22;17168;49.164;9.060;2024-01-30T16:15:24;8.70;93.10
30379;DHT22;17168;49.164;9.060;2024-01-30T16:17:57;8.60;93.40
30379;DHT22;17168;49.164;9.060;2024-01-30T16:20:29;8.50;93.50
30379;DHT22;17168;49.164;9.060;2024-01-30T16:23:01;8.50;93.70
30379;DHT22;17168;49.164;9.060;2024-01-30T16:25:34;8.40;94.10
30379;DHT22;17168;49.164;9.060;2024-01-30T16:28:06;8.30;94.40